sensor_id;sensor_type;location;lat;lon;timestamp;pressure;altitude;pressure_sealevel;temperature;humidity
76406;BME280;65234;50.044;19.258;2023-02-15T00:00:41;100443.25;;;2.77;100.00
76406;BME280;65234;50.044;19.258;2023-02-15T00:03:26;100441.22;;;2.83;100.00
76406;BME280;65234;50.044;19.258;2023-02-15T00:05:56;100435.75;;;2.83;100.00
76406;BME280;65234;50.044;19.258;2023-02-15T00:08:22;100442.44;;;2.77;100.00
76406;BME280;65234;50.044;19.258;2023-02-15T00:10:48;100437.59;;;2.74;100.00
76406;BME280;65234;50.044;19.258;2023-02-15T00:13:13;100431.09;;;2.70;100.00
76406;BME280;65234;50.044;19.258;2023-02-15T00:15:39;100434.03;;;2.73;100.00
76406;BME280;65234;50.044;19.258;2023-02-15T00:18:05;100437.97;;;2.81;100.00
76406;BME280;65234;50.044;19.258;2023-02-15T00:20:31;100430.47;;;2.73;100.00
76406;BME280;65234;50.044;19.258;2023-02-15T00:22:58;100429.38;;;2.74;100.00
76406;BME280;65234;50.044;19.258;2023-02-15T00:25:24;100425.00;;;2.73;100.00
76406;BME280;65234;50.044;19.258;2023-02-15T00:27:50;100425.81;;;2.73;100.00
76406;BME280;65234;50.044;19.258;2023-02-15T00:30:16;100421.56;;;2.81;100.00
76406;BME280;65234;50.044;19.258;2023-02-15T00:32:41;100417.72;;;2.82;100.00
76406;BME280;65234;50.044;19.258;2023-02-15T00:35:07;100411.22;;;2.78;100.00
76406;BME280;65234;50.044;19.258;2023-02-15T00:37:33;100414.28;;;2.76;100.00
76406;BME280;65234;50.044;19.258;2023-02-15T00:40:19;100410.41;;;2.77;100.00
76406;BME280;65234;50.044;19.258;2023-02-15T00:42:45;100406.28;;;2.80;100.00
76406;BME280;65234;50.044;19.258;2023-02-15T00:45:11;100407.47;;;2.88;100.00
76406;BME280;65234;50.044;19.258;2023-02-15T00:47:36;100407.16;;;2.89;100.00
76406;BME280;65234;50.044;19.258;2023-02-15T00:50:02;100401.28;;;2.82;100.00
76406;BME280;65234;50.044;19.258;2023-02-15T00:52:28;100391.69;;;2.71;100.00
76406;BME280;65234;50.044;19.258;2023-02-15T00:54:54;100386.72;;;2.73;100.00
76406;BME280;65234;50.044;19.258;2023-02-15T00:57:21;100382.44;;;2.80;100.00
76406;BME280;65234;50.044;19.258;2023-02-15T00:59:47;100391.34;;;2.86;100.00
76406;BME280;65234;50.044;19.258;2023-02-15T01:02:13;100394.00;;;2.91;100.00
76406;BME280;65234;50.044;19.258;2023-02-15T01:04:38;100391.34;;;2.86;100.00
76406;BME280;65234;50.044;19.258;2023-02-15T01:07:04;100390.53;;;2.85;100.00
76406;BME280;65234;50.044;19.258;2023-02-15T01:09:30;100386.41;;;2.88;100.00
76406;BME280;65234;50.044;19.258;2023-02-15T01:11:56;100387.13;;;2.80;100.00
76406;BME280;65234;50.044;19.258;2023-02-15T01:14:22;100387.72;;;2.77;100.00
76406;BME280;65234;50.044;19.258;2023-02-15T01:16:48;100381.66;;;2.80;100.00
76406;BME280;65234;50.044;19.258;2023-02-15T01:19:14;100386.19;;;2.84;100.00
76406;BME280;65234;50.044;19.258;2023-02-15T01:21:40;100388.53;;;2.77;100.00
76406;BME280;65234;50.044;19.258;2023-02-15T01:24:11;100378.41;;;2.78;100.00
76406;BME280;65234;50.044;19.258;2023-02-15T01:26:37;100362.31;;;2.63;100.00
76406;BME280;65234;50.044;19.258;2023-02-15T01:29:03;100388.66;;;2.72;100.00
76406;BME280;65234;50.044;19.258;2023-02-15T01:31:30;100374.66;;;2.74;100.00
76406;BME280;65234;50.044;19.258;2023-02-15T01:33:55;100371.44;;;2.72;100.00
76406;BME280;65234;50.044;19.258;2023-02-15T01:36:21;100377.72;;;2.72;100.00
76406;BME280;65234;50.044;19.258;2023-02-15T01:38:47;100367.25;;;2.74;100.00
76406;BME280;65234;50.044;19.258;2023-02-15T01:41:13;100364.53;;;2.74;100.00
76406;BME280;65234;50.044;19.258;2023-02-15T01:43:40;100366.78;;;2.72;100.00
76406;BME280;65234;50.044;19.258;2023-02-15T01:46:07;100368.25;;;2.78;100.00
76406;BME280;65234;50.044;19.258;2023-02-15T01:48:38;100372.31;;;2.81;100.00
76406;BME280;65234;50.044;19.258;2023-02-15T01:51:05;100366.81;;;2.81;100.00
76406;BME280;65234;50.044;19.258;2023-02-15T01:53:32;100358.44;;;2.77;100.00
76406;BME280;65234;50.044;19.258;2023-02-15T01:56:02;100360.16;;;2.73;100.00
76406;BME280;65234;50.044;19.258;2023-02-15T01:58:32;100356.94;;;2.71;100.00
76406;BME280;65234;50.044;19.258;2023-02-15T02:01:00;100358.34;;;2.69;100.00
76406;BME280;65234;50.044;19.258;2023-02-15T02:03:42;100356.56;;;2.64;100.00
76406;BME280;65234;50.044;19.258;2023-02-15T02:06:11;100350.13;;;2.69;100.00
76406;BME280;65234;50.044;19.258;2023-02-15T02:08:38;100339.72;;;2.71;100.00
76406;BME280;65234;50.044;19.258;2023-02-15T02:11:10;100334.44;;;2.61;100.00
76406;BME280;65234;50.044;19.258;2023-02-15T02:13:35;100340.91;;;2.65;100.00
76406;BME280;65234;50.044;19.258;2023-02-15T02:16:08;100326.50;;;2.73;100.00
76406;BME280;65234;50.044;19.258;2023-02-15T02:18:44;100326.50;;;2.73;100.00
76406;BME280;65234;50.044;19.258;2023-02-15T02:21:47;100322.09;;;2.63;100.00
76406;BME280;65234;50.044;19.258;2023-02-15T02:24:33;100320.91;;;2.56;100.00
76406;BME280;65234;50.044;19.258;2023-02-15T02:27:19;100335.19;;;2.53;100.00
76406;BME280;65234;50.044;19.258;2023-02-15T02:30:06;100323.31;;;2.57;100.00
76406;BME280;65234;50.044;19.258;2023-02-15T02:32:53;100316.91;;;2.62;100.00
76406;BME280;65234;50.044;19.258;2023-02-15T02:35:31;100306.59;;;2.59;100.00
76406;BME280;65234;50.044;19.258;2023-02-15T02:38:04;100310.44;;;2.58;100.00
76406;BME280;65234;50.044;19.258;2023-02-15T02:40:41;100314.31;;;2.57;100.00
76406;BME280;65234;50.044;19.258;2023-02-15T02:43:12;100312.19;;;2.54;100.00
76406;BME280;65234;50.044;19.258;2023-02-15T02:45:44;100292.03;;;2.50;100.00
76406;BME280;65234;50.044;19.258;2023-02-15T02:48:16;100302.88;;;2.55;100.00
76406;BME280;65234;50.044;19.258;2023-02-15T02:50:44;100289.47;;;2.53;100.00
76406;BME280;65234;50.044;19.258;2023-02-15T02:53:10;100291.72;;;2.51;100.00
76406;BME280;65234;50.044;19.258;2023-02-15T02:55:39;100285.88;;;2.44;100.00
76406;BME280;65234;50.044;19.258;2023-02-15T02:58:12;100285.69;;;2.41;100.00
76406;BME280;65234;50.044;19.258;2023-02-15T03:00:44;100279.69;;;2.38;100.00
76406;BME280;65234;50.044;19.258;2023-02-15T03:03:15;100280.41;;;2.44;100.00
76406;BME280;65234;50.044;19.258;2023-02-15T03:05:47;100275.34;;;2.37;100.00
76406;BME280;65234;50.044;19.258;2023-02-15T03:08:17;100279.78;;;2.33;100.00
76406;BME280;65234;50.044;19.258;2023-02-15T03:10:44;100284.78;;;2.31;100.00
76406;BME280;65234;50.044;19.258;2023-02-15T03:13:10;100274.03;;;2.35;100.00
76406;BME280;65234;50.044;19.258;2023-02-15T03:15:38;100273.41;;;2.38;100.00
76406;BME280;65234;50.044;19.258;2023-02-15T03:18:04;100269.88;;;2.37;100.00
76406;BME280;65234;50.044;19.258;2023-02-15T03:20:33;100264.81;;;2.31;100.00
76406;BME280;65234;50.044;19.258;2023-02-15T03:23:04;100268.47;;;2.26;100.00
76406;BME280;65234;50.044;19.258;2023-02-15T03:25:32;100265.13;;;2.29;100.00
76406;BME280;65234;50.044;19.258;2023-02-15T03:28:01;100251.78;;;2.28;100.00
76406;BME280;65234;50.044;19.258;2023-02-15T03:30:29;100264.81;;;2.31;100.00
76406;BME280;65234;50.044;19.258;2023-02-15T03:32:57;100266.25;;;2.28;100.00
76406;BME280;65234;50.044;19.258;2023-02-15T03:35:25;100270.47;;;2.34;100.00
76406;BME280;65234;50.044;19.258;2023-02-15T03:38:00;100266.34;;;2.37;100.00
76406;BME280;65234;50.044;19.258;2023-02-15T03:40:29;100267.25;;;2.32;100.00
76406;BME280;65234;50.044;19.258;2023-02-15T03:43:01;100278.19;;;2.32;100.00
76406;BME280;65234;50.044;19.258;2023-02-15T03:45:32;100276.75;;;2.35;100.00
76406;BME280;65234;50.044;19.258;2023-02-15T03:48:00;100283.03;;;2.35;100.00
76406;BME280;65234;50.044;19.258;2023-02-15T03:50:29;100271.28;;;2.35;100.00
76406;BME280;65234;50.044;19.258;2023-02-15T03:52:58;100267.75;;;2.34;100.00
76406;BME280;65234;50.044;19.258;2023-02-15T03:55:25;100274.94;;;2.30;100.00
76406;BME280;65234;50.044;19.258;2023-02-15T03:57:51;100274.13;;;2.30;100.00
76406;BME280;65234;50.044;19.258;2023-02-15T04:00:19;100261.19;;;2.35;100.00
76406;BME280;65234;50.044;19.258;2023-02-15T04:02:55;100265.00;;;2.34;100.00
76406;BME280;65234;50.044;19.258;2023-02-15T04:05:24;100265.00;;;2.34;100.00
76406;BME280;65234;50.044;19.258;2023-02-15T04:07:50;100269.47;;;2.30;100.00
76406;BME280;65234;50.044;19.258;2023-02-15T04:10:17;100263.53;;;2.28;100.00
76406;BME280;65234;50.044;19.258;2023-02-15T04:12:43;100260.78;;;2.28;100.00
76406;BME280;65234;50.044;19.258;2023-02-15T04:15:11;100260.97;;;2.32;100.00
76406;BME280;65234;50.044;19.258;2023-02-15T04:17:37;100260.78;;;2.28;100.00
76406;BME280;65234;50.044;19.258;2023-02-15T04:20:04;100261.09;;;2.27;100.00
76406;BME280;65234;50.044;19.258;2023-02-15T04:22:30;100260.28;;;2.26;100.00
76406;BME280;65234;50.044;19.258;2023-02-15T04:24:55;100263.63;;;2.23;100.00
76406;BME280;65234;50.044;19.258;2023-02-15T04:27:22;100261.19;;;2.22;100.00
76406;BME280;65234;50.044;19.258;2023-02-15T04:29:48;100262.09;;;2.17;100.00
76406;BME280;65234;50.044;19.258;2023-02-15T04:32:14;100259.50;;;2.12;100.00
76406;BME280;65234;50.044;19.258;2023-02-15T04:34:39;100259.28;;;2.09;100.00
76406;BME280;65234;50.044;19.258;2023-02-15T04:37:05;100259.59;;;2.07;100.00
76406;BME280;65234;50.044;19.258;2023-02-15T04:39:31;100262.41;;;2.02;100.00
76406;BME280;65234;50.044;19.258;2023-02-15T04:41:57;100261.41;;;1.98;100.00
76406;BME280;65234;50.044;19.258;2023-02-15T04:44:24;100260.50;;;2.03;100.00
76406;BME280;65234;50.044;19.258;2023-02-15T04:46:49;100265.09;;;1.94;100.00
76406;BME280;65234;50.044;19.258;2023-02-15T04:49:15;100261.41;;;1.98;100.00
76406;BME280;65234;50.044;19.258;2023-02-15T04:51:41;100264.13;;;1.98;100.00
76406;BME280;65234;50.044;19.258;2023-02-15T04:54:06;100267.19;;;1.97;100.00
76406;BME280;65234;50.044;19.258;2023-02-15T04:56:32;100267.50;;;1.95;100.00
76406;BME280;65234;50.044;19.258;2023-02-15T04:58:58;100259.63;;;1.94;100.00
76406;BME280;65234;50.044;19.258;2023-02-15T05:01:25;100268.91;;;1.93;100.00
76406;BME280;65234;50.044;19.258;2023-02-15T05:03:51;100267.00;;;1.93;100.00
76406;BME280;65234;50.044;19.258;2023-02-15T05:06:16;100269.72;;;1.93;100.00
76406;BME280;65234;50.044;19.258;2023-02-15T05:08:42;100264.47;;;1.97;100.00
76406;BME280;65234;50.044;19.258;2023-02-15T05:11:08;100260.00;;;2.01;100.00
76406;BME280;65234;50.044;19.258;2023-02-15T05:13:34;100273.16;;;1.99;100.00
76406;BME280;65234;50.044;19.258;2023-02-15T05:15:59;100265.69;;;2.04;100.00
76406;BME280;65234;50.044;19.258;2023-02-15T05:18:26;100268.41;;;2.04;100.00
76406;BME280;65234;50.044;19.258;2023-02-15T05:20:52;100264.44;;;2.10;100.00
76406;BME280;65234;50.044;19.258;2023-02-15T05:23:18;100262.84;;;2.09;100.00
76406;BME280;65234;50.044;19.258;2023-02-15T05:25:47;100257.97;;;2.06;100.00
76406;BME280;65234;50.044;19.258;2023-02-15T05:28:12;100262.41;;;2.02;100.00
76406;BME280;65234;50.044;19.258;2023-02-15T05:30:38;100269.41;;;2.08;100.00
76406;BME280;65234;50.044;19.258;2023-02-15T05:33:04;100274.06;;;2.08;100.00
76406;BME280;65234;50.044;19.258;2023-02-15T05:35:31;100272.16;;;2.08;100.00
76406;BME280;65234;50.044;19.258;2023-02-15T05:37:57;100274.06;;;2.08;100.00
76406;BME280;65234;50.044;19.258;2023-02-15T05:40:23;100268.31;;;2.09;100.00
76406;BME280;65234;50.044;19.258;2023-02-15T05:42:48;100270.53;;;2.07;100.00
76406;BME280;65234;50.044;19.258;2023-02-15T05:45:14;100264.03;;;2.03;100.00
76406;BME280;65234;50.044;19.258;2023-02-15T05:47:40;100264.56;;;2.05;100.00
76406;BME280;65234;50.044;19.258;2023-02-15T05:50:07;100273.88;;;2.04;100.00
76406;BME280;65234;50.044;19.258;2023-02-15T05:52:34;100276.59;;;2.04;100.00
76406;BME280;65234;50.044;19.258;2023-02-15T05:55:00;100280.44;;;2.03;100.00
76406;BME280;65234;50.044;19.258;2023-02-15T05:57:26;100279.81;;;2.06;100.00
76406;BME280;65234;50.044;19.258;2023-02-15T05:59:52;100279.63;;;2.03;100.00
76406;BME280;65234;50.044;19.258;2023-02-15T06:02:17;100282.06;;;2.04;100.00
76406;BME280;65234;50.044;19.258;2023-02-15T06:04:43;100284.28;;;2.02;100.00
76406;BME280;65234;50.044;19.258;2023-02-15T06:07:09;100276.41;;;2.01;100.00
76406;BME280;65234;50.044;19.258;2023-02-15T06:09:36;100289.25;;;2.00;100.00
76406;BME280;65234;50.044;19.258;2023-02-15T06:12:02;100284.91;;;1.99;100.00
76406;BME280;65234;50.044;19.258;2023-02-15T06:14:28;100282.47;;;1.98;100.00
76406;BME280;65234;50.044;19.258;2023-02-15T06:16:53;100291.59;;;1.93;100.00
76406;BME280;65234;50.044;19.258;2023-02-15T06:19:19;100295.13;;;1.94;100.00
76406;BME280;65234;50.044;19.258;2023-02-15T06:21:45;100291.28;;;1.95;100.00
76406;BME280;65234;50.044;19.258;2023-02-15T06:24:11;100290.25;;;1.90;100.00
76406;BME280;65234;50.044;19.258;2023-02-15T06:26:38;100293.19;;;1.94;100.00
76406;BME280;65234;50.044;19.258;2023-02-15T06:29:04;100284.78;;;1.90;100.00
76406;BME280;65234;50.044;19.258;2023-02-15T06:31:29;100284.78;;;1.90;100.00
76406;BME280;65234;50.044;19.258;2023-02-15T06:33:55;100282.06;;;1.90;100.00
76406;BME280;65234;50.044;19.258;2023-02-15T06:36:20;100289.03;;;1.83;100.00
76406;BME280;65234;50.044;19.258;2023-02-15T06:38:46;100288.56;;;1.81;100.00
76406;BME280;65234;50.044;19.258;2023-02-15T06:41:12;100285.28;;;1.79;100.00
76406;BME280;65234;50.044;19.258;2023-02-15T06:43:39;100280.72;;;1.74;100.00
76406;BME280;65234;50.044;19.258;2023-02-15T06:46:05;100289.75;;;1.75;100.00
76406;BME280;65234;50.044;19.258;2023-02-15T06:48:31;100295.22;;;1.75;100.00
76406;BME280;65234;50.044;19.258;2023-02-15T06:50:56;100293.56;;;1.74;100.00
76406;BME280;65234;50.044;19.258;2023-02-15T06:53:22;100292.19;;;1.76;100.00
76406;BME280;65234;50.044;19.258;2023-02-15T06:55:48;100282.56;;;1.79;100.00
76406;BME280;65234;50.044;19.258;2023-02-15T06:58:14;100283.09;;;1.81;100.00
76406;BME280;65234;50.044;19.258;2023-02-15T07:00:40;100279.13;;;1.87;100.00
76406;BME280;65234;50.044;19.258;2023-02-15T07:03:06;100276.41;;;1.87;100.00
76406;BME280;65234;50.044;19.258;2023-02-15T07:05:33;100281.38;;;1.85;100.00
76406;BME280;65234;50.044;19.258;2023-02-15T07:07:59;100285.59;;;1.91;100.00
76406;BME280;65234;50.044;19.258;2023-02-15T07:10:26;100280.13;;;1.91;100.00
76406;BME280;65234;50.044;19.258;2023-02-15T07:12:52;100287.72;;;1.94;100.00
76406;BME280;65234;50.044;19.258;2023-02-15T07:15:19;100281.16;;;1.95;100.00
76406;BME280;65234;50.044;19.258;2023-02-15T07:17:47;100285.41;;;2.01;100.00
76406;BME280;65234;50.044;19.258;2023-02-15T07:20:16;100279.34;;;2.04;100.00
76406;BME280;65234;50.044;19.258;2023-02-15T07:22:42;100277.63;;;2.08;100.00
76406;BME280;65234;50.044;19.258;2023-02-15T07:25:09;100277.63;;;2.08;100.00
76406;BME280;65234;50.044;19.258;2023-02-15T07:27:37;100274.56;;;2.10;100.00
76406;BME280;65234;50.044;19.258;2023-02-15T07:30:04;100270.91;;;2.14;100.00
76406;BME280;65234;50.044;19.258;2023-02-15T07:32:31;100274.84;;;2.22;100.00
76406;BME280;65234;50.044;19.258;2023-02-15T07:34:59;100266.47;;;2.18;100.00
76406;BME280;65234;50.044;19.258;2023-02-15T07:37:25;100279.41;;;2.26;100.00
76406;BME280;65234;50.044;19.258;2023-02-15T07:39:51;100272.22;;;2.30;100.00
76406;BME280;65234;50.044;19.258;2023-02-15T07:42:17;100277.38;;;2.32;100.00
76406;BME280;65234;50.044;19.258;2023-02-15T07:44:43;100270.81;;;2.33;100.00
76406;BME280;65234;50.044;19.258;2023-02-15T07:47:09;100276.16;;;2.38;100.00
76406;BME280;65234;50.044;19.258;2023-02-15T07:49:34;100267.47;;;2.36;100.00
76406;BME280;65234;50.044;19.258;2023-02-15T07:52:02;100279.19;;;2.36;100.00
76406;BME280;65234;50.044;19.258;2023-02-15T07:54:27;100273.31;;;2.43;100.00
76406;BME280;65234;50.044;19.258;2023-02-15T07:56:53;100279.50;;;2.49;100.00
76406;BME280;65234;50.044;19.258;2023-02-15T07:59:19;100274.50;;;2.51;100.00
76406;BME280;65234;50.044;19.258;2023-02-15T08:01:45;100273.88;;;2.54;100.00
76406;BME280;65234;50.044;19.258;2023-02-15T08:04:10;100275.06;;;2.61;100.00
76406;BME280;65234;50.044;19.258;2023-02-15T08:06:37;100272.41;;;2.70;100.00
76406;BME280;65234;50.044;19.258;2023-02-15T08:09:05;100273.75;;;2.72;100.00
76406;BME280;65234;50.044;19.258;2023-02-15T08:11:32;100258.53;;;2.80;100.00
76406;BME280;65234;50.044;19.258;2023-02-15T08:14:00;100268.72;;;2.88;100.00
76406;BME280;65234;50.044;19.258;2023-02-15T08:16:29;100266.72;;;2.80;100.00
76406;BME280;65234;50.044;19.258;2023-02-15T08:18:56;100261.00;;;2.90;100.00
76406;BME280;65234;50.044;19.258;2023-02-15T08:21:22;100261.88;;;2.99;100.00
76406;BME280;65234;50.044;19.258;2023-02-15T08:23:48;100254.66;;;3.03;100.00
76406;BME280;65234;50.044;19.258;2023-02-15T08:26:15;100259.50;;;3.06;100.00
76406;BME280;65234;50.044;19.258;2023-02-15T08:28:41;100253.41;;;3.09;100.00
76406;BME280;65234;50.044;19.258;2023-02-15T08:31:07;100246.81;;;3.10;100.00
76406;BME280;65234;50.044;19.258;2023-02-15T08:33:33;100239.72;;;3.09;100.00
76406;BME280;65234;50.044;19.258;2023-02-15T08:36:03;100232.69;;;3.17;100.00
76406;BME280;65234;50.044;19.258;2023-02-15T08:38:28;100237.34;;;3.16;100.00
76406;BME280;65234;50.044;19.258;2023-02-15T08:40:54;100236.56;;;3.16;100.00
76406;BME280;65234;50.044;19.258;2023-02-15T08:43:21;100236.72;;;3.19;100.00
76406;BME280;65234;50.044;19.258;2023-02-15T08:45:47;100224.34;;;3.22;100.00
76406;BME280;65234;50.044;19.258;2023-02-15T08:48:12;100226.94;;;3.27;100.00
76406;BME280;65234;50.044;19.258;2023-02-15T08:50:38;100231.97;;;3.33;100.00
76406;BME280;65234;50.044;19.258;2023-02-15T08:53:04;100235.22;;;3.36;100.00
76406;BME280;65234;50.044;19.258;2023-02-15T08:55:30;100229.88;;;3.30;100.00
76406;BME280;65234;50.044;19.258;2023-02-15T08:57:56;100224.25;;;3.36;100.00
76406;BME280;65234;50.044;19.258;2023-02-15T09:00:24;100231.44;;;3.54;100.00
76406;BME280;65234;50.044;19.258;2023-02-15T09:02:50;100226.00;;;3.62;100.00
76406;BME280;65234;50.044;19.258;2023-02-15T09:05:16;100223.09;;;3.67;100.00
76406;BME280;65234;50.044;19.258;2023-02-15T09:07:41;100217.97;;;3.74;100.00
76406;BME280;65234;50.044;19.258;2023-02-15T09:10:07;100222.53;;;3.79;100.00
76406;BME280;65234;50.044;19.258;2023-02-15T09:12:33;100219.41;;;3.72;100.00
76406;BME280;65234;50.044;19.258;2023-02-15T09:14:59;100225.56;;;3.77;100.00
76406;BME280;65234;50.044;19.258;2023-02-15T09:17:26;100220.75;;;3.83;100.00
76406;BME280;65234;50.044;19.258;2023-02-15T09:19:51;100212.22;;;3.93;100.00
76406;BME280;65234;50.044;19.258;2023-02-15T09:22:17;100218.84;;;4.01;100.00
76406;BME280;65234;50.044;19.258;2023-02-15T09:24:43;100221.13;;;3.99;100.00
76406;BME280;65234;50.044;19.258;2023-02-15T09:27:08;100215.97;;;4.06;100.00
76406;BME280;65234;50.044;19.258;2023-02-15T09:29:34;100208.56;;;4.15;100.00
76406;BME280;65234;50.044;19.258;2023-02-15T09:32:00;100199.22;;;4.16;100.00
76406;BME280;65234;50.044;19.258;2023-02-15T09:34:27;100201.31;;;4.19;100.00
76406;BME280;65234;50.044;19.258;2023-02-15T09:36:52;100197.13;;;4.21;100.00
76406;BME280;65234;50.044;19.258;2023-02-15T09:39:20;100195.38;;;4.25;100.00
76406;BME280;65234;50.044;19.258;2023-02-15T09:42:07;100193.91;;;4.37;100.00
76406;BME280;65234;50.044;19.258;2023-02-15T09:45:01;100189.88;;;4.51;100.00
76406;BME280;65234;50.044;19.258;2023-02-15T09:47:43;100183.75;;;4.54;100.00
76406;BME280;65234;50.044;19.258;2023-02-15T09:50:22;100181.19;;;4.58;100.00
76406;BME280;65234;50.044;19.258;2023-02-15T09:53:08;100179.56;;;4.57;100.00
76406;BME280;65234;50.044;19.258;2023-02-15T09:55:50;100180.38;;;4.66;100.00
76406;BME280;65234;50.044;19.258;2023-02-15T09:58:24;100168.72;;;4.69;100.00
76406;BME280;65234;50.044;19.258;2023-02-15T10:01:00;100172.91;;;4.75;100.00
76406;BME280;65234;50.044;19.258;2023-02-15T10:03:41;100169.84;;;4.85;100.00
76406;BME280;65234;50.044;19.258;2023-02-15T10:06:23;100157.41;;;4.79;100.00
76406;BME280;65234;50.044;19.258;2023-02-15T10:09:10;100166.28;;;4.93;100.00
76406;BME280;65234;50.044;19.258;2023-02-15T10:11:52;100161.75;;;4.97;100.00
76406;BME280;65234;50.044;19.258;2023-02-15T10:14:37;100163.69;;;4.97;100.00
76406;BME280;65234;50.044;19.258;2023-02-15T10:17:16;100161.41;;;4.90;100.00
76406;BME280;65234;50.044;19.258;2023-02-15T10:19:55;100168.22;;;4.93;100.00
76406;BME280;65234;50.044;19.258;2023-02-15T10:22:32;100161.38;;;5.07;100.00
76406;BME280;65234;50.044;19.258;2023-02-15T10:25:12;100167.19;;;5.14;100.00
76406;BME280;65234;50.044;19.258;2023-02-15T10:27:45;100159.91;;;5.18;100.00
76406;BME280;65234;50.044;19.258;2023-02-15T10:30:12;100148.56;;;5.29;100.00
76406;BME280;65234;50.044;19.258;2023-02-15T10:32:41;100149.31;;;5.38;100.00
76406;BME280;65234;50.044;19.258;2023-02-15T10:35:19;100149.47;;;5.41;100.00
76406;BME280;65234;50.044;19.258;2023-02-15T10:37:55;100140.72;;;5.48;100.00
76406;BME280;65234;50.044;19.258;2023-02-15T10:40:29;100146.69;;;5.50;100.00
76406;BME280;65234;50.044;19.258;2023-02-15T10:43:17;100142.53;;;5.44;100.00
76406;BME280;65234;50.044;19.258;2023-02-15T10:45:52;100138.75;;;5.57;100.00
76406;BME280;65234;50.044;19.258;2023-02-15T10:48:30;100134.53;;;5.59;100.00
76406;BME280;65234;50.044;19.258;2023-02-15T10:50:59;100127.25;;;5.55;100.00
76406;BME280;65234;50.044;19.258;2023-02-15T10:53:42;100127.38;;;5.67;100.00
76406;BME280;65234;50.044;19.258;2023-02-15T10:56:20;100114.56;;;5.71;100.00
76406;BME280;65234;50.044;19.258;2023-02-15T10:59:00;100114.84;;;5.78;100.00
76406;BME280;65234;50.044;19.258;2023-02-15T11:01:33;100106.00;;;5.73;100.00
76406;BME280;65234;50.044;19.258;2023-02-15T11:04:33;100115.84;;;5.74;100.00
76406;BME280;65234;50.044;19.258;2023-02-15T11:07:07;100112.88;;;5.87;100.00
76406;BME280;65234;50.044;19.258;2023-02-15T11:09:43;100107.66;;;5.94;100.00
76406;BME280;65234;50.044;19.258;2023-02-15T11:12:13;100106.25;;;5.88;100.00
76406;BME280;65234;50.044;19.258;2023-02-15T11:14:45;100100.06;;;5.91;100.00
76406;BME280;65234;50.044;19.258;2023-02-15T11:17:15;100095.53;;;5.95;100.00
76406;BME280;65234;50.044;19.258;2023-02-15T11:19:48;100096.84;;;5.89;100.00
76406;BME280;65234;50.044;19.258;2023-02-15T11:22:17;100093.16;;;6.06;100.00
76406;BME280;65234;50.044;19.258;2023-02-15T11:24:45;100079.53;;;6.09;100.00
76406;BME280;65234;50.044;19.258;2023-02-15T11:27:18;100083.03;;;6.19;100.00
76406;BME280;65234;50.044;19.258;2023-02-15T11:29:52;100076.97;;;6.25;100.00
76406;BME280;65234;50.044;19.258;2023-02-15T11:32:24;100082.75;;;6.32;100.00
76406;BME280;65234;50.044;19.258;2023-02-15T11:34:53;100063.75;;;6.39;100.00
76406;BME280;65234;50.044;19.258;2023-02-15T11:37:24;100068.09;;;6.40;100.00
76406;BME280;65234;50.044;19.258;2023-02-15T11:39:54;100066.63;;;6.43;100.00
76406;BME280;65234;50.044;19.258;2023-02-15T11:42:21;100061.88;;;6.31;100.00
76406;BME280;65234;50.044;19.258;2023-02-15T11:44:54;100064.16;;;6.29;100.00
76406;BME280;65234;50.044;19.258;2023-02-15T11:47:22;100058.47;;;6.34;100.00
76406;BME280;65234;50.044;19.258;2023-02-15T11:49:48;100059.19;;;6.43;100.00
76406;BME280;65234;50.044;19.258;2023-02-15T11:52:16;100058.59;;;6.38;100.00
76406;BME280;65234;50.044;19.258;2023-02-15T11:54:45;100059.38;;;6.38;100.00
76406;BME280;65234;50.044;19.258;2023-02-15T11:57:17;100052.44;;;6.53;100.00
76406;BME280;65234;50.044;19.258;2023-02-15T11:59:49;100049.47;;;6.58;100.00
76406;BME280;65234;50.044;19.258;2023-02-15T12:02:18;100044.31;;;6.56;100.00
76406;BME280;65234;50.044;19.258;2023-02-15T12:04:49;100049.50;;;6.70;100.00
76406;BME280;65234;50.044;19.258;2023-02-15T12:07:20;100031.59;;;6.76;100.00
76406;BME280;65234;50.044;19.258;2023-02-15T12:09:52;100034.84;;;6.78;100.00
76406;BME280;65234;50.044;19.258;2023-02-15T12:12:24;100015.09;;;6.76;100.00
76406;BME280;65234;50.044;19.258;2023-02-15T12:14:51;100017.41;;;6.86;100.00
76406;BME280;65234;50.044;19.258;2023-02-15T12:17:18;100033.69;;;6.91;100.00
76406;BME280;65234;50.044;19.258;2023-02-15T12:19:46;100027.28;;;6.87;100.00
76406;BME280;65234;50.044;19.258;2023-02-15T12:22:20;100034.88;;;6.90;100.00
76406;BME280;65234;50.044;19.258;2023-02-15T12:24:48;100025.56;;;6.95;100.00
76406;BME280;65234;50.044;19.258;2023-02-15T12:27:17;100023.88;;;7.02;100.00
76406;BME280;65234;50.044;19.258;2023-02-15T12:29:48;100022.47;;;6.96;100.00
76406;BME280;65234;50.044;19.258;2023-02-15T12:32:17;100026.00;;;6.85;100.00
76406;BME280;65234;50.044;19.258;2023-02-15T12:34:45;100013.50;;;6.99;100.00
76406;BME280;65234;50.044;19.258;2023-02-15T12:37:16;100020.41;;;6.93;100.00
76406;BME280;65234;50.044;19.258;2023-02-15T12:39:52;100018.47;;;7.06;100.00
76406;BME280;65234;50.044;19.258;2023-02-15T12:42:18;100010.44;;;7.13;100.00
76406;BME280;65234;50.044;19.258;2023-02-15T12:44:56;100008.81;;;7.24;100.00
76406;BME280;65234;50.044;19.258;2023-02-15T12:47:22;100005.13;;;7.20;100.00
76406;BME280;65234;50.044;19.258;2023-02-15T12:50:13;100004.22;;;7.28;100.00